Date,TemperatureHighF,TemperatureAvgF,TemperatureLowF,DewpointHighF,DewpointAvgF,DewpointLowF,HumidityHigh,HumidityAvg,HumidityLow,PressureMaxIn,PressureMinIn,WindSpeedMaxMPH,WindSpeedAvgMPH,GustSpeedMaxMPH,PrecipitationSumIn
2013-1-1,30.6,29.3,27.5,24.8,22.5,20.8,85,76,69,30.69,30.57,13,1,13,0.00
2013-1-2,31.2,30.3,28.8,23.9,22.2,21.1,76,72,69,30.67,30.53,16,2,16,0.00
2013-1-3,31.0,29.4,26.9,23.4,20.8,18.3,86,70,63,30.53,30.41,9,1,16,0.00
2013-1-4,33.4,29.1,26.7,25.3,23.1,20.4,88,78,64,30.49,30.40,8,0,10,0.00
2013-1-5,30.0,29.5,28.8,27.2,25.4,22.1,90,84,74,30.47,30.30,5,0,9,0.05
2013-1-6,35.3,30.9,26.1,30.0,27.4,23.5,91,87,75,30.31,30.13,4,0,4,0.00
2013-1-7,53.6,42.5,32.8,46.7,37.9,30.0,95,84,71,30.15,30.00,26,3,26,0.16
2013-1-8,53.5,44.5,39.8,46.4,41.3,37.9,95,89,71,30.19,29.90,12,1,22,0.16
2013-1-9,44.3,38.8,34.3,42.5,35.8,31.8,95,89,80,29.97,29.71,18,2,21,0.30
2013-1-10,41.1,37.7,35.2,33.7,31.2,28.5,92,77,65,30.07,29.95,22,3,22,0.00
2013-1-11,40.2,33.7,25.3,30.3,25.7,21.2,85,73,50,30.33,30.07,17,1,17,0.00
2013-1-12,38.8,27.6,21.8,25.3,20.8,18.0,85,76,52,30.45,30.33,2,0,3,0.00
2013-1-13,32.4,23.7,17.2,23.3,18.6,13.5,88,81,67,30.55,30.45,3,0,5,0.00
2013-1-14,38.0,31.1,19.4,32.3,25.0,16.4,89,78,65,30.54,30.42,16,4,26,0.00
2013-1-15,44.9,36.5,31.5,34.6,31.7,27.6,91,83,67,30.67,30.50,21,2,21,0.00
2013-1-16,36.3,33.0,30.6,32.6,29.6,27.2,92,87,81,30.63,30.59,11,1,11,0.00
2013-1-17,31.2,30.1,29.3,26.9,25.4,24.7,86,82,79,30.65,30.48,11,1,11,0.00
2013-1-18,39.9,31.3,26.7,29.5,25.4,22.2,90,79,63,30.48,30.33,3,0,6,0.00
2013-1-19,31.8,29.8,26.0,27.8,25.9,23.5,92,85,79,30.55,30.38,10,1,11,0.00
2013-1-20,30.1,28.7,27.9,25.7,24.2,23.0,89,83,78,30.62,30.52,14,1,14,0.00
2013-1-21,29.4,28.3,27.5,23.6,23.0,0.0,84,80,77,30.52,30.39,9,1,9,0.00
2013-1-22,28.7,27.7,27.0,22.8,22.0,21.0,82,79,75,30.42,30.24,11,1,11,0.00
2013-1-23,31.0,28.5,27.2,27.5,23.0,20.3,89,80,69,30.26,30.06,10,1,10,0.02
2013-1-24,38.5,32.4,27.5,33.0,29.0,24.4,93,87,78,30.29,30.20,7,0,7,0.08
2013-1-25,37.8,35.7,33.4,36.0,34.0,31.6,94,93,92,30.22,29.99,4,0,4,0.14
2013-1-26,43.3,38.3,34.7,40.2,35.3,33.4,95,89,77,30.07,29.97,16,1,16,0.02
2013-1-27,43.2,40.1,38.2,36.2,34.5,0.0,84,80,68,30.13,30.03,21,3,21,0.00
2013-1-28,43.1,41.0,38.2,37.3,35.4,33.7,85,80,73,30.11,30.03,17,4,27,0.31
2013-1-29,49.2,45.5,41.6,40.2,38.5,35.5,82,77,70,30.38,30.07,29,5,29,0.18
2013-1-30,48.9,46.6,43.8,44.3,41.8,38.8,88,84,79,30.39,30.35,20,3,20,0.12
2013-1-31,51.7,48.2,43.9,42.8,41.1,39.5,88,77,64,30.39,30.32,22,3,22,0.00
2013-2-1,55.7,44.7,35.8,41.8,37.2,31.9,91,76,49,30.45,30.33,11,0,11,0.00
2013-2-2,53.1,38.9,30.0,39.4,33.6,28.0,93,82,58,30.48,30.31,10,0,10,0.00
2013-2-3,49.2,41.1,30.3,41.0,35.1,28.1,94,80,67,30.33,30.20,19,2,19,0.01
2013-2-4,52.0,44.3,35.8,39.1,36.8,31.7,86,75,57,30.21,29.97,17,0,17,0.00
2013-2-5,48.9,43.0,37.0,44.2,39.0,32.9,92,86,77,30.03,29.92,17,1,17,0.24
2013-2-6,49.2,43.5,39.5,41.0,38.8,36.3,92,84,69,30.12,29.91,15,0,15,0.05
2013-2-7,47.7,40.7,30.3,38.5,33.7,27.2,92,77,57,30.15,29.90,17,2,17,0.05
2013-2-8,45.1,36.0,27.0,33.9,29.7,24.5,92,79,58,30.25,30.15,25,3,25,0.01
2013-2-9,45.4,41.7,38.0,36.7,33.5,30.4,81,73,63,30.28,30.17,26,6,26,0.00
2013-2-10,49.6,40.3,29.7,36.4,33.2,27.1,91,76,58,30.35,30.25,22,2,22,0.00
2013-2-11,46.7,43.6,41.3,39.3,34.8,31.7,83,71,61,30.35,30.26,29,6,29,0.00
2013-2-12,53.2,48.0,44.5,43.8,41.5,39.0,87,78,64,30.43,30.34,21,4,21,0.00
2013-2-13,54.4,49.1,44.8,43.3,40.1,35.8,81,71,56,30.46,30.34,25,5,25,0.00
2013-2-14,53.6,46.8,37.8,40.8,37.9,33.8,87,71,61,30.53,30.45,19,3,21,0.00
2013-2-15,57.5,42.6,31.3,41.4,36.0,29.0,93,79,52,30.53,30.27,10,0,10,0.00
2013-2-16,50.5,41.2,30.4,42.7,36.0,28.4,94,82,68,30.28,30.16,28,3,28,0.03
2013-2-17,45.8,41.1,32.7,34.9,30.0,26.3,82,65,52,30.25,30.10,21,3,24,0.00
2013-2-18,46.5,37.6,30.7,32.5,29.4,0.0,86,73,54,30.10,29.78,12,1,12,0.00
2013-2-19,52.6,38.4,28.7,32.3,28.8,25.6,90,71,36,29.99,29.75,8,0,8,0.00
2013-2-20,47.4,37.9,28.5,37.4,32.0,25.4,92,80,58,30.07,29.99,18,2,18,0.04
2013-2-21,44.2,41.2,36.2,37.6,35.7,32.9,92,81,66,30.12,30.06,22,4,22,0.05
2013-2-22,44.8,42.6,38.8,41.2,37.2,30.1,91,81,62,30.12,29.79,26,4,26,0.40
2013-2-23,45.7,40.7,37.8,34.5,32.8,30.0,82,74,60,30.39,29.97,27,5,27,0.08
2013-2-24,49.6,42.3,38.3,34.0,32.8,31.5,83,70,50,30.40,30.07,14,3,14,0.00
2013-2-25,46.2,40.2,37.3,38.7,35.0,31.8,93,82,67,30.33,30.00,27,4,27,0.53
2013-2-26,47.9,42.2,38.3,36.1,34.0,31.5,84,73,58,30.38,30.25,20,3,20,0.01
2013-2-27,52.3,41.7,31.6,41.9,35.9,29.3,92,81,55,30.34,30.24,12,1,13,0.00
2013-2-28,52.6,47.5,43.2,50.2,45.3,40.5,95,92,88,30.40,30.23,16,1,16,0.51
2013-3-1,57.8,52.3,42.2,50.4,47.8,40.0,93,85,73,30.42,30.31,16,2,16,0.05
2013-3-2,55.1,46.7,41.1,46.9,41.9,35.7,93,84,70,30.31,30.07,23,2,23,0.07
2013-3-3,49.9,42.9,32.2,36.4,30.8,27.1,84,63,44,30.27,30.17,22,4,22,0.00
2013-3-4,53.3,39.0,26.9,29.6,24.5,18.2,90,61,27,30.29,30.03,17,1,17,0.00
2013-3-5,41.2,36.4,30.4,35.8,30.9,24.2,89,80,72,30.03,29.78,8,0,8,0.06
2013-3-6,43.6,38.7,34.4,38.9,35.9,32.6,94,90,80,29.88,29.63,18,1,18,0.50
2013-3-7,55.9,42.4,32.5,39.9,34.0,29.3,95,75,38,30.09,29.96,8,0,9,0.01
2013-3-8,58.6,41.8,29.3,34.4,30.6,24.7,92,69,30,30.21,30.03,8,0,8,0.00
2013-3-9,59.6,44.0,28.4,36.5,29.7,24.0,92,63,27,30.46,30.21,19,2,19,0.01
2013-3-10,54.8,44.9,34.9,42.5,36.1,27.8,87,72,49,30.46,30.36,22,4,22,0.00
2013-3-11,54.7,48.6,44.8,47.0,43.8,41.8,92,84,63,30.39,30.22,15,2,15,0.01
2013-3-12,58.4,51.9,47.0,49.4,46.5,44.0,94,83,67,30.22,30.13,22,3,22,0.00
2013-3-13,65.8,54.9,47.0,46.9,44.8,42.4,87,70,49,30.21,30.09,15,2,15,0.00
2013-3-14,64.2,51.7,44.1,47.3,43.2,38.9,91,75,45,30.18,30.03,21,2,21,0.00
2013-3-15,61.0,54.5,49.8,48.5,46.5,43.2,92,75,57,30.22,30.12,18,3,18,0.00
2013-3-16,51.1,46.6,36.3,46.7,41.0,32.5,88,81,72,30.12,29.92,33,6,33,0.51
2013-3-17,47.0,41.2,36.9,34.8,32.7,0.0,84,72,53,30.22,30.04,26,6,33,0.10
2013-3-18,52.0,43.8,34.6,35.3,33.1,29.8,84,67,48,30.23,30.19,20,4,20,0.00
2013-3-19,47.3,39.6,31.2,38.4,32.5,0.0,91,77,52,30.22,29.80,10,1,10,0.24
2013-3-20,52.9,42.2,37.9,44.9,36.8,32.1,94,82,54,30.07,29.59,31,4,31,0.58
2013-3-21,47.4,40.1,37.2,35.9,33.1,30.0,85,76,57,30.24,30.07,31,5,31,0.14
2013-3-22,47.0,39.9,35.5,32.0,30.0,26.9,82,68,49,30.37,30.22,21,4,21,0.00
2013-3-23,50.8,39.1,31.9,31.1,28.5,19.9,88,68,33,30.40,30.27,9,0,9,0.00
2013-3-24,51.6,40.7,30.1,30.2,27.0,21.6,88,62,31,30.33,30.16,9,1,13,0.00
2013-3-25,59.2,45.4,31.5,38.5,30.3,24.9,84,59,31,30.17,29.96,12,1,12,0.02
2013-3-26,54.8,45.7,35.3,41.8,36.8,31.8,89,72,49,30.04,29.95,10,1,10,0.00
2013-3-27,65.5,51.2,40.3,47.2,41.7,37.0,89,72,40,29.99,29.90,10,0,10,0.00
2013-3-28,65.8,52.8,43.5,47.4,44.4,41.0,93,75,44,30.12,29.99,13,1,13,0.02
2013-3-29,70.3,56.8,46.0,46.4,43.8,39.2,88,65,33,30.20,30.11,9,0,10,0.02
2013-3-30,73.3,56.1,39.2,46.7,41.9,36.0,90,63,33,30.24,30.03,11,1,11,0.00
2013-3-31,75.3,56.8,39.3,45.9,40.6,36.0,89,60,27,30.07,29.87,13,1,13,0.00
2013-4-1,63.9,58.8,55.0,49.4,47.8,45.8,76,67,53,30.10,29.94,27,5,27,0.00
2013-4-2,66.3,57.4,52.8,48.2,46.1,44.0,79,67,47,30.17,30.09,21,4,21,0.00
2013-4-3,69.1,56.8,43.3,48.1,45.2,39.3,89,67,41,30.15,29.94,13,1,13,0.00
2013-4-4,58.7,54.7,52.0,54.4,48.8,44.1,89,81,70,29.94,29.74,13,1,14,0.16
2013-4-5,58.4,53.1,49.4,50.6,47.6,0.0,91,82,68,29.94,29.84,19,3,20,0.11
2013-4-6,52.2,47.8,42.8,47.0,43.5,39.6,94,85,68,29.99,29.80,18,2,18,0.58
2013-4-7,50.1,44.0,39.8,43.2,39.3,36.6,93,84,67,29.89,29.58,27,2,27,0.79
2013-4-8,56.0,47.9,42.6,41.1,38.2,34.8,83,70,54,30.27,29.89,14,4,21,0.00
2013-4-9,60.9,48.3,34.3,43.3,38.4,31.2,90,70,47,30.36,30.22,18,2,18,0.00
2013-4-10,59.2,51.4,45.7,49.6,42.4,35.4,92,72,54,30.26,30.02,28,4,28,0.14
2013-4-11,57.5,49.0,43.3,39.3,37.3,35.1,83,64,48,30.28,30.15,16,4,32,0.00
2013-4-12,55.1,45.4,33.4,43.1,36.7,0.0,90,73,47,30.16,29.76,21,3,21,0.01
2013-4-13,50.7,43.8,38.3,41.8,34.9,30.4,87,72,49,30.02,29.78,29,6,29,0.25
2013-4-14,54.4,44.8,40.8,37.0,34.9,30.6,82,69,43,30.04,29.88,27,4,27,0.01
2013-4-15,52.8,44.1,36.5,40.6,35.8,32.4,89,73,50,30.17,29.92,16,2,16,0.03
2013-4-16,54.5,44.7,34.7,39.3,35.0,28.5,91,71,39,30.41,30.17,12,1,12,0.00
2013-4-17,60.4,46.2,31.0,38.1,33.4,28.4,91,65,32,30.49,30.37,19,3,19,0.00
2013-4-18,59.2,51.9,46.7,46.6,39.4,35.7,84,63,47,30.44,30.26,19,4,19,0.00
2013-4-19,60.2,53.2,50.2,48.6,46.1,44.2,87,77,62,30.26,30.09,27,6,27,0.12
2013-4-20,58.9,53.2,49.4,45.1,41.4,39.1,81,65,51,30.28,30.21,21,5,21,0.01
2013-4-21,56.0,50.5,47.1,43.2,40.8,38.6,81,70,58,30.29,30.18,19,5,23,0.00
2013-4-22,63.5,51.1,36.5,41.6,31.6,21.6,90,54,22,30.47,30.29,14,1,14,0.00
2013-4-23,70.8,50.2,31.9,35.4,30.2,22.7,83,52,22,30.43,30.13,13,1,13,0.00
2013-4-24,75.4,54.4,33.8,39.4,31.3,23.4,83,48,17,30.34,29.97,14,1,14,0.00
2013-4-25,75.6,62.0,46.2,44.6,38.5,34.1,68,45,27,30.08,29.97,21,4,21,0.00
2013-4-26,79.6,64.9,47.9,47.7,39.4,30.1,81,45,18,30.18,30.08,21,3,21,0.00
2013-4-27,72.1,60.4,47.4,43.4,37.2,26.0,71,46,20,30.18,30.12,25,4,25,0.00
2013-4-28,65.0,57.7,51.3,50.0,42.9,35.7,84,60,35,30.20,29.98,22,5,22,0.04
2013-4-29,58.0,51.5,44.2,47.0,36.2,25.4,85,58,29,30.14,29.94,29,6,29,0.10
2013-4-30,56.9,47.5,40.9,37.4,31.2,26.2,80,54,34,30.41,30.14,20,3,20,0.01
2013-5-1,67.8,50.8,31.9,34.0,30.0,23.2,86,51,20,30.57,30.41,15,1,15,0.01
2013-5-2,77.9,57.7,36.2,45.6,34.3,27.6,81,48,18,30.56,30.21,10,1,10,0.00
2013-5-3,81.6,64.1,44.5,45.9,40.3,34.4,80,47,20,30.30,30.08,10,1,10,0.00
2013-5-4,81.6,66.3,46.4,46.6,36.7,25.3,81,41,15,30.16,29.92,22,2,22,0.00
2013-5-5,83.8,67.4,46.5,44.2,37.6,32.0,70,38,18,29.93,29.71,16,1,16,0.00
2013-5-6,83.4,67.7,47.9,51.2,45.0,39.8,76,47,27,29.85,29.65,21,3,21,0.00
2013-5-7,77.0,67.7,58.1,51.0,47.8,43.4,65,50,33,29.91,29.76,25,7,25,0.00
2013-5-8,69.6,63.5,56.9,51.6,49.6,46.9,71,61,49,30.05,29.91,27,8,27,0.00
2013-5-9,79.8,68.3,58.0,54.1,51.5,47.7,76,57,33,30.10,29.97,25,5,25,0.00
2013-5-10,86.1,72.0,52.9,53.9,49.7,41.0,84,49,25,30.14,29.99,21,4,21,0.00
2013-5-11,87.4,74.4,62.7,55.0,51.5,45.8,66,47,27,30.11,29.91,19,4,19,0.00
2013-5-12,72.5,66.9,61.3,57.9,55.1,51.2,78,66,52,30.06,29.98,29,6,29,0.00
2013-5-13,68.3,60.6,53.9,54.2,49.5,39.4,82,68,47,30.18,29.98,26,5,26,0.01
2013-5-14,67.9,57.6,47.0,41.6,35.9,17.6,78,48,16,30.20,30.05,21,4,21,0.00
2013-5-15,61.8,56.6,50.7,47.9,44.8,39.2,77,65,54,30.09,30.00,18,4,22,0.00
2013-5-16,69.8,58.2,49.5,50.5,47.2,43.5,87,68,42,30.01,29.85,18,3,18,0.00
2013-5-17,65.6,56.7,51.0,48.5,45.0,37.2,86,67,36,30.06,29.94,20,5,20,0.28
2013-5-18,60.9,55.2,52.5,47.2,45.5,42.4,80,70,57,30.23,30.06,18,4,18,0.00
2013-5-19,64.2,58.6,51.9,48.8,46.4,43.9,79,65,51,30.32,30.23,26,6,26,0.00
2013-5-20,75.1,61.6,43.3,48.8,43.7,39.3,88,55,30,30.30,29.83,21,3,23,0.00
2013-5-21,60.4,51.5,42.3,45.4,41.1,36.9,86,68,48,29.92,29.77,24,6,24,0.23
2013-5-22,47.9,45.1,43.2,42.4,39.9,36.3,91,82,76,29.98,29.89,16,2,17,0.21
2013-5-23,54.2,47.8,41.5,46.1,42.2,38.2,91,81,68,30.04,29.97,13,1,13,0.07
2013-5-24,61.8,52.3,46.1,46.3,44.1,42.2,92,75,52,30.07,29.98,19,3,19,0.15
2013-5-25,67.6,56.9,44.9,47.1,44.5,41.2,89,65,43,30.05,29.91,17,3,17,0.00
2013-5-26,66.4,58.2,50.7,52.5,48.3,44.7,93,71,50,29.99,29.92,25,4,25,0.11
2013-5-27,57.8,52.9,46.8,54.1,49.2,42.8,93,87,70,29.97,29.74,18,1,18,0.31
2013-5-28,64.5,57.3,52.2,50.0,47.4,45.7,81,70,54,29.91,29.75,23,5,23,0.00
2013-5-29,62.0,53.8,49.5,52.4,48.7,46.2,93,83,57,30.00,29.67,20,2,20,0.82
2013-5-30,64.3,55.1,48.0,47.3,44.2,40.3,89,68,46,30.22,30.00,22,4,22,0.04
2013-5-31,72.1,60.0,45.1,47.4,44.3,39.4,90,60,34,30.30,30.17,16,3,16,0.00
2013-6-1,77.0,63.1,47.4,50.9,47.7,42.8,87,60,34,30.21,29.97,19,3,19,0.00
2013-6-2,71.8,64.0,55.6,51.5,49.1,45.0,79,60,40,30.00,29.94,24,6,26,0.00
2013-6-3,74.9,64.4,53.3,51.6,49.2,47.0,82,60,39,30.05,29.92,22,5,22,0.00
2013-6-4,87.0,69.5,48.6,54.2,46.1,37.4,84,49,18,30.08,29.93,11,1,14,0.00
2013-6-5,84.9,70.3,51.4,58.4,50.3,44.4,84,53,25,30.03,29.88,20,3,20,0.00
2013-6-6,84.0,72.4,60.4,58.2,55.4,50.6,82,58,34,29.96,29.86,23,5,23,0.00
2013-6-7,79.0,70.3,62.3,53.2,43.6,29.2,62,40,20,30.05,29.94,25,6,25,0.00
2013-6-8,80.5,70.7,56.7,51.5,42.7,33.1,71,39,24,30.09,29.96,30,5,30,0.00
2013-6-9,73.9,64.3,55.3,51.3,46.8,38.1,74,55,28,30.02,29.90,30,6,30,0.00
2013-6-10,70.6,60.8,51.0,47.1,44.5,41.3,76,57,36,29.94,29.81,23,6,24,0.00
2013-6-11,64.2,57.3,53.2,47.0,43.5,40.0,75,61,44,30.11,29.90,21,4,21,0.00
2013-6-12,67.3,58.5,51.4,47.3,44.4,37.7,79,61,39,30.14,30.09,19,4,20,0.00
2013-6-13,65.0,57.5,50.4,49.5,46.8,43.5,85,68,49,30.22,30.12,25,5,25,0.05
2013-6-14,72.5,62.0,53.6,49.7,46.7,42.7,78,59,39,30.24,29.99,23,5,23,0.00
2013-6-15,86.1,67.4,47.3,52.4,46.2,37.9,86,52,21,29.99,29.83,22,2,22,0.01
2013-6-16,75.1,67.7,60.5,54.4,51.2,45.6,71,56,38,30.04,29.93,22,6,29,0.00
2013-6-17,78.8,69.2,60.2,53.6,49.8,44.9,72,52,32,30.05,29.87,16,5,22,0.00
2013-6-18,72.3,63.5,56.3,49.5,45.1,37.1,73,54,28,29.98,29.86,24,5,26,0.00
2013-6-19,66.8,59.3,55.1,50.4,46.6,43.0,81,64,46,30.05,29.91,26,5,26,0.00
2013-6-20,66.0,58.5,53.3,51.4,48.6,45.6,83,70,50,30.10,30.02,20,5,20,0.05
2013-6-21,69.8,62.1,55.0,50.2,48.3,45.8,78,62,46,30.14,30.06,20,5,20,0.00
2013-6-22,81.8,66.8,48.9,53.8,48.3,40.6,86,55,26,30.10,29.82,13,2,13,0.00
2013-6-23,73.2,66.0,61.0,61.2,57.0,53.1,92,74,54,29.82,29.63,12,0,13,0.11
2013-6-24,68.8,61.9,58.0,59.4,52.4,48.8,93,72,53,29.70,29.61,21,3,21,0.00
2013-6-25,68.1,60.2,56.6,58.8,55.7,53.1,93,85,66,29.88,29.70,10,1,10,0.29
2013-6-26,73.9,62.9,56.2,59.1,55.3,51.9,93,78,50,30.05,29.88,15,1,15,0.05
2013-6-27,83.8,70.2,58.6,60.4,57.5,55.0,89,67,42,30.13,30.04,14,2,18,0.09
2013-6-28,95.1,78.2,59.3,62.7,58.7,55.1,90,56,29,30.15,29.93,17,2,17,0.00
2013-6-29,88.8,78.2,68.1,62.9,58.7,55.2,73,53,33,30.01,29.89,22,4,22,0.00
2013-6-30,101.2,81.6,60.2,65.4,57.9,51.5,83,50,20,29.97,29.76,13,1,13,0.00
2013-7-1,90.3,79.5,68.4,65.8,63.5,61.4,80,60,42,29.91,29.82,23,4,23,0.00
2013-7-2,91.0,79.6,66.9,65.9,60.8,49.9,82,56,27,29.97,29.89,25,5,25,0.00
2013-7-3,85.9,75.0,66.0,58.1,51.6,37.5,68,47,22,30.04,29.91,22,6,25,0.00
2013-7-4,76.8,67.0,58.3,52.5,49.8,44.7,72,55,40,30.03,29.89,34,7,34,0.00
2013-7-5,72.5,65.3,58.6,51.9,50.0,47.7,72,59,47,29.97,29.85,29,6,29,0.00
2013-7-6,77.7,67.9,57.6,56.8,53.5,51.0,79,61,45,29.92,29.75,19,5,24,0.00
2013-7-7,77.0,69.9,62.0,57.8,55.8,52.9,77,62,49,29.87,29.75,26,5,26,0.00
2013-7-8,81.6,70.9,61.0,58.3,54.3,49.5,77,58,35,29.99,29.87,29,7,29,0.00
2013-7-9,90.1,74.8,55.3,61.4,56.0,48.6,81,55,34,30.06,29.88,20,3,20,0.00
2013-7-10,84.3,73.4,62.9,58.7,52.8,46.3,74,51,28,29.97,29.81,23,6,23,0.00
2013-7-11,76.8,65.5,55.3,50.1,46.1,41.3,71,52,32,29.99,29.86,28,7,31,0.00
2013-7-12,74.9,65.1,56.3,50.4,47.4,42.1,72,54,34,30.03,29.91,24,5,24,0.00
2013-7-13,86.3,69.4,54.4,53.3,45.5,21.1,78,49,10,30.13,29.96,15,2,15,0.00
2013-7-14,88.4,71.8,50.7,52.9,47.3,35.3,86,47,17,30.08,29.86,20,2,20,0.00
2013-7-15,94.0,75.8,60.1,50.4,45.6,40.0,66,38,16,29.97,29.75,18,2,18,0.00
2013-7-16,86.3,74.3,56.5,60.4,49.4,40.9,71,44,22,29.88,29.74,21,1,21,0.00
2013-7-17,80.7,70.7,62.4,56.6,53.2,46.7,75,56,33,30.09,29.86,24,7,29,0.00
2013-7-18,83.8,72.2,59.8,56.4,53.4,44.1,81,55,30,30.13,29.93,26,7,26,0.00
2013-7-19,83.0,73.4,63.2,59.9,56.1,53.0,72,56,38,30.05,29.86,28,7,30,0.00
2013-7-20,79.9,71.0,62.7,59.3,57.2,54.2,81,63,47,29.96,29.80,28,7,30,0.00
2013-7-21,83.0,72.2,62.0,58.2,54.5,49.5,76,56,32,29.87,29.75,31,9,31,0.00
2013-7-22,84.1,73.5,63.9,58.1,53.6,45.5,73,52,27,29.92,29.82,29,9,29,0.00
2013-7-23,89.7,76.1,62.9,61.7,55.6,45.5,82,53,22,29.98,29.81,23,5,26,0.00
2013-7-24,91.2,78.8,63.9,59.6,54.5,46.3,72,46,23,29.95,29.85,22,6,26,0.00
2013-7-25,91.0,78.6,65.8,58.2,54.3,47.1,72,46,27,29.98,29.89,23,5,23,0.00
2013-7-26,89.9,76.7,58.9,56.4,53.2,41.9,77,46,27,30.05,29.93,27,6,27,0.00
2013-7-27,79.2,69.8,59.9,50.6,46.4,40.7,63,45,29,30.08,29.89,32,8,32,0.00
2013-7-28,73.7,65.4,57.0,52.1,50.1,48.2,75,59,43,29.96,29.86,30,8,30,0.00
2013-7-29,79.2,67.2,57.6,53.9,50.5,44.2,78,57,30,29.94,29.82,24,7,25,0.00
2013-7-30,83.4,72.6,62.4,55.5,53.3,44.4,76,53,28,30.05,29.94,23,6,23,0.00
2013-7-31,78.6,70.3,63.9,59.1,56.2,51.8,77,61,48,30.04,29.89,26,6,26,0.00
2013-8-1,69.6,64.9,61.3,57.1,54.2,51.8,78,69,58,30.04,29.94,28,8,30,0.00
2013-8-2,69.6,65.1,60.5,53.4,51.9,50.3,72,63,52,30.09,30.03,25,6,25,0.00
2013-8-3,84.7,71.5,59.6,58.8,55.0,51.9,82,59,35,30.08,29.91,16,4,16,0.00
2013-8-4,93.2,75.5,56.9,59.5,55.1,46.6,88,54,21,30.01,29.81,14,2,15,0.00
2013-8-5,90.3,76.7,60.2,61.5,58.2,52.2,84,56,31,29.94,29.80,22,4,22,0.00
2013-8-6,92.1,78.1,62.1,60.6,52.6,39.9,80,46,20,29.93,29.79,20,4,20,0.00
2013-8-7,87.8,76.6,62.0,55.4,52.0,45.1,72,44,27,29.94,29.81,28,6,28,0.00
2013-8-8,80.7,72.3,63.9,60.7,56.8,53.7,71,59,47,29.93,29.79,29,8,29,0.00
2013-8-9,83.0,72.6,65.3,64.0,59.6,56.6,87,65,41,29.92,29.70,24,5,24,0.12
2013-8-10,80.1,70.7,63.1,62.9,60.4,58.4,91,71,52,29.95,29.84,21,4,21,0.02
2013-8-11,80.3,71.4,65.0,60.0,56.7,52.6,74,61,40,30.01,29.89,19,6,22,0.00
2013-8-12,81.1,70.9,56.9,57.6,55.3,51.5,84,60,43,30.01,29.91,25,4,25,0.00
2013-8-13,88.6,73.9,61.0,56.8,52.4,44.2,77,51,23,30.05,29.85,15,4,19,0.00
2013-8-14,84.0,72.5,58.1,56.9,50.9,43.5,76,50,28,29.93,29.83,22,3,22,0.00
2013-8-15,84.9,74.9,66.1,62.2,57.7,51.4,68,56,37,29.91,29.84,21,4,21,0.00
2013-8-16,84.0,73.7,66.0,66.6,62.3,59.3,90,69,45,29.97,29.88,19,2,19,0.11
2013-8-17,84.0,74.4,66.0,62.6,55.9,52.9,74,54,36,30.02,29.93,18,5,27,0.00
2013-8-18,84.3,73.6,63.4,58.3,55.7,49.0,80,56,32,30.07,29.95,20,5,20,0.00
2013-8-19,84.3,73.7,63.7,57.4,54.1,48.0,79,53,31,30.03,29.93,23,6,23,0.00
2013-8-20,83.4,71.7,61.0,55.5,53.1,48.4,78,55,32,30.07,29.89,26,6,26,0.00
2013-8-21,91.0,71.3,53.5,60.1,49.4,39.1,83,51,18,30.02,29.83,11,0,11,0.00
2013-8-22,79.9,69.6,56.3,59.0,53.8,48.1,76,58,45,29.90,29.78,16,1,16,0.00
2013-8-23,74.9,69.8,65.5,61.4,57.0,53.1,84,65,49,29.87,29.80,26,6,26,0.07
2013-8-24,77.6,69.3,62.6,56.3,53.4,49.3,77,59,39,29.85,29.78,22,5,22,0.00
2013-8-25,70.1,63.7,59.2,60.1,55.2,51.4,91,74,57,29.90,29.84,20,1,20,0.13
2013-8-26,78.6,66.1,56.5,60.3,55.0,48.9,93,71,40,29.94,29.86,17,2,17,0.00
2013-8-27,86.7,70.2,53.2,59.0,53.2,49.5,88,59,30,29.96,29.70,18,2,21,0.00
2013-8-28,84.0,74.5,65.8,60.2,58.2,55.5,77,58,42,29.85,29.76,19,5,20,0.00
2013-8-29,80.1,71.8,65.5,64.3,60.2,57.5,88,68,47,30.02,29.80,21,4,21,0.12
2013-8-30,82.0,72.5,64.3,60.9,57.9,53.7,79,62,40,30.12,29.97,19,4,19,0.00
2013-8-31,92.7,72.7,56.0,59.6,53.7,48.3,88,57,23,30.02,29.76,12,1,12,0.00
2013-9-1,84.9,74.0,62.0,59.2,55.7,52.8,81,55,35,29.84,29.70,23,5,23,0.00
2013-9-2,84.3,74.6,66.9,56.7,54.8,52.5,63,51,36,29.85,29.77,20,5,22,0.00
2013-9-3,80.7,72.3,66.3,58.0,55.7,53.4,68,56,43,29.93,29.84,26,5,26,0.00
2013-9-4,76.0,69.6,64.8,58.0,56.3,53.5,73,63,49,29.95,29.89,29,6,29,0.00
2013-9-5,72.7,66.8,59.6,58.6,57.2,53.7,87,72,58,29.99,29.83,24,6,25,0.15
2013-9-6,69.6,62.7,58.1,59.9,56.1,53.6,93,79,63,30.11,29.98,17,2,17,0.43
2013-9-7,83.6,66.3,51.1,59.2,53.7,48.3,92,68,32,30.10,29.91,7,0,7,0.00
2013-9-8,87.6,71.0,55.4,61.3,56.0,47.4,89,63,29,30.07,29.90,14,2,15,0.00
2013-9-9,83.2,71.6,56.2,62.4,59.0,51.4,86,66,43,29.99,29.81,25,4,25,0.00
2013-9-10,93.6,74.5,58.7,61.6,55.0,45.1,89,57,20,29.95,29.80,11,1,11,0.00
2013-9-11,96.8,75.0,57.2,60.6,54.1,47.6,84,54,20,29.97,29.82,10,1,10,0.00
2013-9-12,85.5,72.6,58.6,62.0,58.2,52.2,84,62,42,29.96,29.77,22,4,22,0.00
2013-9-13,81.2,73.6,67.8,62.4,60.6,58.8,78,65,48,29.86,29.71,26,7,26,0.00
2013-9-14,92.3,72.9,61.2,63.1,59.9,54.2,90,67,32,29.82,29.62,18,3,19,0.00
2013-9-15,72.0,67.6,64.0,62.4,58.8,55.1,84,74,61,29.82,29.65,30,6,30,0.01
2013-9-16,70.8,64.7,61.2,55.4,53.9,52.2,77,68,55,29.94,29.82,20,5,20,0.00
2013-9-17,68.3,61.8,59.2,54.5,50.6,43.9,81,68,42,29.93,29.79,24,6,24,0.00
2013-9-18,70.8,61.6,51.7,50.4,47.7,42.8,77,62,38,30.06,29.93,17,4,19,0.00
2013-9-19,79.9,59.9,41.5,48.1,42.7,38.1,90,59,23,30.06,29.79,14,1,14,0.00
2013-9-20,76.8,60.6,44.9,55.4,46.6,39.8,90,64,27,29.80,29.60,18,2,24,0.08
2013-9-21,71.1,60.2,53.3,55.8,52.6,49.8,92,77,50,29.73,29.65,16,3,22,0.01
2013-9-22,61.3,57.5,55.6,53.9,50.9,47.7,91,79,64,29.81,29.67,20,3,20,0.22
2013-9-23,61.0,57.8,54.4,53.2,50.7,49.1,89,78,67,29.97,29.81,16,3,16,0.04
2013-9-24,60.2,54.6,51.4,49.4,47.2,43.3,86,76,60,29.96,29.83,17,4,19,0.01
2013-9-25,61.2,54.3,50.8,47.6,45.8,43.6,82,73,57,29.98,29.82,21,5,21,0.01
2013-9-26,65.3,56.2,45.2,47.7,45.4,41.1,89,68,48,30.13,29.98,12,3,18,0.00
2013-9-27,59.2,54.6,52.3,51.8,48.2,44.6,93,80,63,30.13,29.92,16,2,16,0.25
2013-9-28,61.3,55.3,50.4,59.2,53.1,46.3,95,92,83,29.92,29.45,22,1,22,1.38
2013-9-29,55.7,51.9,48.6,52.7,49.4,46.3,94,91,78,29.68,29.36,25,0,25,0.79
2013-9-30,57.2,51.9,49.1,50.4,46.6,41.0,92,82,67,29.98,29.55,25,2,25,0.46
2013-10-1,55.3,49.1,43.9,48.2,45.6,41.4,94,88,70,30.20,29.97,15,0,15,0.49
2013-10-2,56.0,47.5,41.2,46.0,42.2,38.8,92,82,65,30.19,30.04,13,1,19,0.01
2013-10-3,58.9,50.8,41.6,44.7,41.9,38.3,89,73,51,30.43,30.15,21,2,21,0.00
2013-10-4,66.6,48.7,34.3,46.9,39.8,32.2,94,75,37,30.52,30.37,11,1,11,0.00
2013-10-5,72.0,51.4,36.8,49.0,41.0,34.7,94,72,31,30.42,30.19,7,0,7,0.00
2013-10-6,71.6,52.3,38.5,49.5,43.0,36.4,95,74,37,30.23,29.95,7,0,7,0.01
2013-10-7,58.7,54.3,51.6,50.8,47.1,43.5,88,77,58,30.08,29.93,19,4,19,0.24
2013-10-8,54.7,50.9,45.4,47.8,44.5,40.9,86,79,70,30.08,29.94,19,4,19,0.14
2013-10-9,61.0,48.5,38.8,46.2,41.0,36.4,92,77,50,30.14,29.96,7,0,7,0.00
2013-10-10,60.4,53.3,46.4,47.0,43.9,40.4,90,71,52,30.05,29.91,23,4,23,0.00
2013-10-11,58.7,52.1,44.8,46.9,43.3,39.5,87,73,53,30.14,30.05,16,3,16,0.00
2013-10-12,54.5,50.5,42.3,45.2,43.6,39.3,90,77,66,30.18,30.04,12,2,12,0.00
2013-10-13,66.4,49.5,37.9,44.7,40.9,35.6,94,75,38,30.32,30.18,9,0,9,0.01
2013-10-14,65.8,48.5,35.2,43.9,38.5,33.1,93,72,31,30.43,30.32,9,1,9,0.00
2013-10-15,64.5,46.8,33.1,43.3,36.7,30.6,92,72,34,30.43,30.18,13,1,13,0.00
2013-10-16,65.3,48.1,34.7,42.9,37.9,32.3,92,71,34,30.21,30.12,9,0,9,0.00
2013-10-17,66.9,48.8,35.0,43.6,38.8,32.9,94,72,33,30.29,30.20,10,0,10,0.01
2013-10-18,66.8,48.0,34.4,43.2,38.1,32.0,93,73,33,30.30,30.15,12,1,12,0.00
2013-10-19,68.3,49.3,33.8,46.6,39.5,31.6,93,72,40,30.19,30.04,10,0,10,0.00
2013-10-20,71.3,50.9,36.3,49.8,42.4,34.1,93,76,38,30.20,30.07,5,0,5,0.00
2013-10-21,74.9,53.4,39.8,49.2,43.4,37.7,94,73,33,30.19,30.06,11,0,11,0.01
2013-10-22,71.8,52.3,39.6,48.4,43.3,37.2,93,74,39,30.20,30.03,4,0,8,0.00
2013-10-23,69.8,52.0,39.2,48.9,43.7,37.1,94,76,43,30.14,30.02,9,0,9,0.01
2013-10-24,69.9,50.9,38.9,50.4,43.9,36.8,94,79,46,30.13,30.02,5,0,5,0.00
2013-10-25,65.0,50.4,40.3,49.7,44.9,38.4,95,83,54,30.26,30.11,12,1,12,0.01
2013-10-26,63.4,50.3,42.3,49.9,45.2,39.9,93,84,58,30.30,30.13,13,0,13,0.00
2013-10-27,53.1,50.0,45.8,47.2,44.7,40.9,92,82,69,30.12,29.80,28,3,30,0.04
2013-10-28,56.9,49.9,35.2,44.5,29.4,22.2,81,48,27,29.97,29.86,22,2,22,0.00
2013-10-29,56.5,39.8,28.7,31.3,27.8,22.4,88,66,27,30.09,29.96,8,0,8,0.00
2013-10-30,58.3,46.2,29.7,35.8,31.5,26.3,91,60,36,30.13,30.07,19,3,19,0.00
2013-10-31,57.2,54.2,52.0,48.7,45.2,35.4,82,72,49,30.24,30.10,21,4,21,0.00
2013-11-1,63.7,50.6,38.2,47.5,43.1,35.5,92,77,48,30.29,29.92,7,0,7,0.01
2013-11-2,55.0,48.3,41.2,49.0,42.9,36.7,94,82,65,30.00,29.68,32,4,32,1.06
2013-11-3,49.9,44.8,42.2,40.6,38.5,35.5,88,79,61,30.10,29.98,20,3,20,0.23
2013-11-4,44.9,41.9,36.6,41.9,38.7,34.2,92,88,81,30.18,30.09,12,0,12,0.05
2013-11-5,52.8,46.3,42.1,49.3,43.1,39.9,94,88,78,30.23,30.11,16,1,16,0.20
2013-11-6,50.4,47.8,44.6,47.3,45.1,42.7,93,90,85,30.33,30.20,11,1,11,0.32
2013-11-7,51.6,47.1,43.5,46.7,42.3,38.5,94,84,62,30.20,29.90,30,4,30,0.28
2013-11-8,51.9,48.2,40.8,43.5,41.7,37.8,91,78,68,30.17,30.03,22,3,22,0.08
2013-11-9,50.4,44.1,37.6,42.5,39.4,35.4,92,84,67,30.17,30.10,6,0,6,0.00
2013-11-10,53.6,46.3,40.5,43.6,41.3,38.1,93,83,66,30.24,30.13,5,0,5,0.00
2013-11-11,49.9,47.9,43.5,42.0,41.1,40.3,91,77,71,30.34,30.22,14,1,14,0.00
2013-11-12,53.5,49.0,45.8,48.2,45.0,41.0,93,86,74,30.39,30.22,8,0,8,0.04
2013-11-13,58.9,51.1,39.2,47.9,44.2,36.0,94,78,54,30.44,30.27,17,2,17,0.00
2013-11-14,52.9,46.2,38.8,42.3,39.7,36.1,91,78,64,30.27,30.04,18,3,22,0.00
2013-11-15,47.3,46.4,45.2,42.7,38.7,35.6,86,75,66,30.05,29.41,24,5,24,0.04
2013-11-16,48.6,45.3,41.9,43.7,39.0,36.1,86,79,68,29.79,29.38,25,6,25,0.69
2013-11-17,50.4,47.3,43.5,45.1,42.8,39.2,92,84,76,29.96,29.79,22,3,23,0.16
2013-11-18,52.5,48.3,43.9,46.8,44.6,40.9,94,87,77,29.95,29.68,11,0,12,0.17
2013-11-19,52.9,48.8,41.1,50.3,43.4,30.6,95,82,62,29.95,29.66,18,2,18,0.34
2013-11-20,44.8,36.4,27.9,32.6,24.5,11.2,90,65,29,30.51,29.95,22,1,22,0.00
2013-11-21,39.9,29.3,19.1,21.0,16.5,7.4,86,62,27,30.77,30.51,11,1,11,0.00
2013-11-22,37.9,29.5,20.0,21.4,18.0,13.9,83,64,41,30.83,30.69,15,1,15,0.00
2013-11-23,40.3,31.4,24.8,23.7,20.1,15.8,79,64,39,30.69,30.42,15,2,15,0.00
2013-11-24,43.2,29.6,20.8,25.0,21.0,0.0,85,71,43,30.47,30.33,8,0,8,0.00
2013-11-25,43.2,30.3,20.8,27.5,22.5,17.5,89,74,46,30.52,30.42,11,0,11,0.00
2013-11-26,39.5,30.3,23.5,29.1,24.3,19.9,88,79,61,30.45,30.26,3,0,5,0.00
2013-11-27,41.2,33.3,27.2,29.4,26.8,0.0,90,78,58,30.26,30.16,10,0,10,0.00
2013-11-28,43.1,31.2,24.7,30.9,25.8,21.7,90,81,60,30.29,30.18,7,0,7,0.00
2013-11-29,41.3,33.0,24.2,37.7,29.0,0.0,91,85,75,30.34,30.26,7,0,7,0.04
2013-11-30,51.7,44.0,37.5,42.9,39.4,35.1,93,84,71,30.36,30.19,13,1,13,0.03
2013-12-1,57.3,51.1,43.2,51.5,47.2,41.3,95,87,73,30.20,29.81,29,4,29,2.39
2013-12-2,50.8,41.1,36.9,46.1,35.2,30.5,89,80,72,30.02,29.80,17,4,25,0.38
2013-12-3,38.5,33.2,23.6,31.5,24.4,15.9,87,71,41,30.33,30.02,12,1,13,0.00
2013-12-4,32.2,24.8,17.7,20.4,15.0,9.7,88,68,41,30.42,30.33,9,0,9,0.00
2013-12-5,26.4,19.9,12.4,15.5,11.9,8.5,85,71,51,30.41,30.31,7,0,7,0.00
2013-12-6,21.4,20.4,18.9,17.5,14.6,0.0,88,78,60,30.35,30.19,13,1,13,0.05
2013-12-7,22.1,15.4,3.4,9.9,4.5,-1.9,80,63,43,30.54,30.23,11,0,11,0.00
2013-12-8,18.4,8.4,0.7,7.0,1.8,-4.5,82,74,56,30.69,30.53,3,0,5,0.00
2013-12-9,35.0,21.3,5.2,27.9,14.3,0.4,85,75,57,30.68,30.45,23,2,24,0.00
2013-12-10,39.9,34.6,26.6,31.7,28.8,22.8,86,79,70,30.48,30.41,19,2,19,0.00
2013-12-11,35.8,28.5,21.6,23.6,20.7,17.5,87,73,56,30.49,30.38,11,0,11,0.00
2013-12-12,31.3,26.1,18.8,26.4,21.1,15.6,89,82,65,30.38,30.19,4,0,7,0.02
2013-12-13,47.9,38.3,31.3,43.5,34.7,26.1,94,87,80,30.45,30.25,15,1,16,0.00
2013-12-14,43.5,38.4,34.0,38.9,35.8,32.2,94,90,82,30.46,30.36,15,0,15,0.00
2013-12-15,50.2,46.5,39.8,43.2,41.1,36.2,89,81,76,30.43,30.35,26,5,26,0.00
2013-12-16,51.0,42.1,31.0,43.4,37.0,28.4,92,82,65,30.47,30.33,14,1,14,0.00
2013-12-17,43.2,34.5,26.7,35.9,30.5,24.4,94,86,69,30.33,30.12,19,1,19,0.01
2013-12-18,46.0,41.8,35.9,38.4,35.0,28.2,86,77,67,30.12,29.99,18,4,18,0.00
2013-12-19,38.8,32.0,25.8,30.0,25.2,19.9,90,77,49,30.34,30.09,10,0,10,0.00
2013-12-20,48.5,39.6,31.2,42.7,32.9,22.2,85,77,55,30.18,29.77,27,7,27,0.09
2013-12-21,49.9,48.5,46.8,42.9,41.6,39.5,83,77,73,30.16,29.77,30,4,30,0.00
2013-12-22,52.2,49.8,46.5,45.5,43.7,41.2,84,80,76,30.31,30.16,25,5,25,0.01
2013-12-23,53.2,49.7,44.1,47.0,42.7,35.8,84,77,66,30.50,30.16,24,5,26,0.14
2013-12-24,47.0,38.4,28.8,36.2,32.6,26.5,92,80,60,30.60,30.50,9,0,9,0.00
2013-12-25,37.2,29.9,25.3,30.9,26.8,22.8,92,88,75,30.59,30.46,3,0,3,0.01
2013-12-26,35.2,29.3,25.4,32.5,27.0,0.0,94,91,85,30.48,30.33,8,0,8,0.01
2013-12-27,45.8,33.3,26.9,40.1,30.7,25.1,94,90,76,30.35,30.21,22,1,22,0.00
2013-12-28,45.1,38.1,31.2,38.0,33.7,29.0,94,84,71,30.53,30.33,20,1,20,0.00
2013-12-29,35.0,31.5,28.5,33.4,29.9,27.0,95,94,93,30.53,30.28,4,0,4,0.00
2013-12-30,38.3,34.6,30.6,33.2,31.4,28.6,94,88,76,30.32,30.20,5,0,11,0.02
2013-12-31,51.6,42.6,31.8,38.7,35.5,30.0,94,77,57,30.35,30.20,10,1,17,0.00
2014-1-1,44.5,36.9,29.7,37.6,33.2,27.7,94,86,76,30.45,30.34,13,0,13,0.01
2014-1-2,51.6,39.4,35.3,42.5,34.7,32.2,91,83,61,30.37,29.94,23,1,23,0.07